Venice, Florida
Current Conditions -  °F | °C
As of 12:35 PM on Monday 22 Dec 2014 (Local Time) from KVNC Reporting Station
Clear Clear  
Wind Chill: 75°   Ceiling: Unl
Heat Index: 75°   Visibility: 10mi
Dew Point: 68°   Wind: 16mph
Humidity: 78%   Direction: 170°S
Pressure: 29.98"   Gusts: 23mph
Location:  27.1°N, 82.45°W
Report Text: KVNC 221735Z AUTO 17014G20KT 10SM CLR 24/20 A2998 RMK AO2 TSNO
Loading
Personal Weather Stations






























Interactive Weather Map New forecast layout! Learn more

10-Day Weather Forecast

Advertisements
Track Severe Weather on mobile